sensor_id;sensor_type;location;lat;lon;timestamp;pressure;altitude;pressure_sealevel;temperature;humidity
36192;BME280;22233;42.708;23.360;2022-07-29T00:01:49;95562.16;;;22.43;65.17
36192;BME280;22233;42.708;23.360;2022-07-29T00:04:14;95563.44;;;22.60;65.21
36192;BME280;22233;42.708;23.360;2022-07-29T00:06:40;95570.25;;;22.77;65.26
36192;BME280;22233;42.708;23.360;2022-07-29T00:09:05;95559.16;;;22.73;64.51
36192;BME280;22233;42.708;23.360;2022-07-29T00:11:31;95597.22;;;22.90;64.27
36192;BME280;22233;42.708;23.360;2022-07-29T00:13:56;95603.94;;;22.89;64.28
36192;BME280;22233;42.708;23.360;2022-07-29T00:16:22;95597.19;;;22.83;65.03
36192;BME280;22233;42.708;23.360;2022-07-29T00:18:48;95581.38;;;22.91;64.72
36192;BME280;22233;42.708;23.360;2022-07-29T00:21:14;95588.88;;;22.83;65.40
36192;BME280;22233;42.708;23.360;2022-07-29T00:23:39;95584.56;;;22.86;64.87
36192;BME280;22233;42.708;23.360;2022-07-29T00:26:04;95580.50;;;22.69;65.46
36192;BME280;22233;42.708;23.360;2022-07-29T00:28:30;95588.78;;;22.65;66.09
36192;BME280;22233;42.708;23.360;2022-07-29T00:30:55;95580.88;;;22.67;65.85
36192;BME280;22233;42.708;23.360;2022-07-29T00:33:21;95574.03;;;22.47;66.49
36192;BME280;22233;42.708;23.360;2022-07-29T00:35:47;95571.69;;;22.49;66.42
36192;BME280;22233;42.708;23.360;2022-07-29T00:38:15;95573.69;;;22.52;67.03
36192;BME280;22233;42.708;23.360;2022-07-29T00:40:41;95585.44;;;22.34;67.26
36192;BME280;22233;42.708;23.360;2022-07-29T00:43:07;95572.13;;;22.03;68.35
36192;BME280;22233;42.708;23.360;2022-07-29T00:45:33;95587.25;;;22.16;68.11
36192;BME280;22233;42.708;23.360;2022-07-29T00:47:59;95577.88;;;21.80;68.79
36192;BME280;22233;42.708;23.360;2022-07-29T00:50:24;95595.81;;;22.00;68.71
36192;BME280;22233;42.708;23.360;2022-07-29T00:52:50;95600.84;;;21.87;68.84
36192;BME280;22233;42.708;23.360;2022-07-29T00:55:16;95603.00;;;21.30;71.03
36192;BME280;22233;42.708;23.360;2022-07-29T00:57:43;95581.03;;;20.73;73.55
36192;BME280;22233;42.708;23.360;2022-07-29T01:00:11;95603.34;;;20.91;72.83
36192;BME280;22233;42.708;23.360;2022-07-29T01:02:37;95583.19;;;20.87;72.98
36192;BME280;22233;42.708;23.360;2022-07-29T01:05:04;95598.25;;;20.66;73.88
36192;BME280;22233;42.708;23.360;2022-07-29T01:07:30;95595.84;;;20.61;73.96
36192;BME280;22233;42.708;23.360;2022-07-29T01:09:57;95590.19;;;20.54;74.25
36192;BME280;22233;42.708;23.360;2022-07-29T01:12:25;95580.28;;;20.23;74.85
36192;BME280;22233;42.708;23.360;2022-07-29T01:14:52;95585.78;;;20.49;74.20
36192;BME280;22233;42.708;23.360;2022-07-29T01:17:28;95587.72;;;20.45;74.39
36192;BME280;22233;42.708;23.360;2022-07-29T01:31:04;95564.69;;;21.28;71.29
36192;BME280;22233;42.708;23.360;2022-07-29T01:33:32;95573.06;;;21.35;71.29
36192;BME280;22233;42.708;23.360;2022-07-29T01:36:19;95572.69;;;21.37;71.10
36192;BME280;22233;42.708;23.360;2022-07-29T01:39:02;95552.69;;;21.47;70.44
36192;BME280;22233;42.708;23.360;2022-07-29T01:41:32;95547.94;;;21.10;71.95
36192;BME280;22233;42.708;23.360;2022-07-29T01:44:06;95533.28;;;21.06;71.84
36192;BME280;22233;42.708;23.360;2022-07-29T01:46:37;95562.66;;;21.22;71.76
36192;BME280;22233;42.708;23.360;2022-07-29T01:49:10;95551.09;;;21.12;71.97
36192;BME280;22233;42.708;23.360;2022-07-29T01:51:43;95545.56;;;21.12;71.85
36192;BME280;22233;42.708;23.360;2022-07-29T01:56:47;95544.41;;;21.13;71.74
36192;BME280;22233;42.708;23.360;2022-07-29T01:59:16;95556.47;;;20.98;72.37
36192;BME280;22233;42.708;23.360;2022-07-29T02:01:43;95557.56;;;21.24;71.65
36192;BME280;22233;42.708;23.360;2022-07-29T02:04:11;95536.59;;;21.23;71.39
36192;BME280;22233;42.708;23.360;2022-07-29T02:06:40;95542.13;;;21.19;71.67
36192;BME280;22233;42.708;23.360;2022-07-29T02:09:07;95531.53;;;21.28;71.33
36192;BME280;22233;42.708;23.360;2022-07-29T02:11:35;95527.34;;;21.42;70.83
36192;BME280;22233;42.708;23.360;2022-07-29T02:14:00;95543.34;;;21.63;70.31
36192;BME280;22233;42.708;23.360;2022-07-29T02:16:28;95546.63;;;21.79;69.74
36192;BME280;22233;42.708;23.360;2022-07-29T02:18:56;95544.53;;;21.62;70.50
36192;BME280;22233;42.708;23.360;2022-07-29T02:21:24;95548.88;;;21.63;70.68
36192;BME280;22233;42.708;23.360;2022-07-29T02:23:51;95557.53;;;21.58;70.62
36192;BME280;22233;42.708;23.360;2022-07-29T02:26:20;95542.00;;;21.46;70.82
36192;BME280;22233;42.708;23.360;2022-07-29T02:28:47;95553.63;;;21.62;70.69
36192;BME280;22233;42.708;23.360;2022-07-29T02:31:14;95537.84;;;21.66;70.40
36192;BME280;22233;42.708;23.360;2022-07-29T02:33:41;95534.34;;;21.69;70.50
36192;BME280;22233;42.708;23.360;2022-07-29T02:36:08;95533.53;;;21.69;70.67
36192;BME280;22233;42.708;23.360;2022-07-29T02:38:35;95529.75;;;21.43;71.49
36192;BME280;22233;42.708;23.360;2022-07-29T02:41:30;95509.81;;;21.27;71.88
36192;BME280;22233;42.708;23.360;2022-07-29T02:44:04;95518.72;;;21.43;71.32
36192;BME280;22233;42.708;23.360;2022-07-29T02:46:33;95517.44;;;21.41;71.21
36192;BME280;22233;42.708;23.360;2022-07-29T02:49:10;95512.56;;;21.27;71.46
36192;BME280;22233;42.708;23.360;2022-07-29T02:51:44;95538.34;;;21.38;71.19
36192;BME280;22233;42.708;23.360;2022-07-29T02:54:11;95522.84;;;21.26;71.45
36192;BME280;22233;42.708;23.360;2022-07-29T02:56:43;95520.84;;;21.23;71.29
36192;BME280;22233;42.708;23.360;2022-07-29T02:59:10;95537.91;;;21.32;71.31
36192;BME280;22233;42.708;23.360;2022-07-29T03:01:39;95542.38;;;21.44;71.05
36192;BME280;22233;42.708;23.360;2022-07-29T03:04:05;95539.69;;;21.14;71.98
36192;BME280;22233;42.708;23.360;2022-07-29T03:06:32;95531.09;;;21.23;71.72
36192;BME280;22233;42.708;23.360;2022-07-29T03:08:58;95518.69;;;21.06;71.74
36192;BME280;22233;42.708;23.360;2022-07-29T03:11:25;95521.94;;;21.15;71.40
36192;BME280;22233;42.708;23.360;2022-07-29T03:13:51;95526.84;;;21.29;71.00
36192;BME280;22233;42.708;23.360;2022-07-29T03:16:19;95517.63;;;21.18;70.85
36192;BME280;22233;42.708;23.360;2022-07-29T03:18:45;95529.22;;;21.34;70.68
36192;BME280;22233;42.708;23.360;2022-07-29T03:21:11;95518.34;;;21.11;71.23
36192;BME280;22233;42.708;23.360;2022-07-29T03:23:37;95499.34;;;21.06;71.05
36192;BME280;22233;42.708;23.360;2022-07-29T03:26:02;95525.41;;;21.08;71.71
36192;BME280;22233;42.708;23.360;2022-07-29T03:28:29;95533.47;;;20.87;72.74
36192;BME280;22233;42.708;23.360;2022-07-29T03:30:54;95538.47;;;20.78;73.09
36192;BME280;22233;42.708;23.360;2022-07-29T03:33:20;95515.00;;;20.91;72.14
36192;BME280;22233;42.708;23.360;2022-07-29T03:35:45;95522.22;;;21.03;72.55
36192;BME280;22233;42.708;23.360;2022-07-29T03:38:11;95534.47;;;20.71;73.88
36192;BME280;22233;42.708;23.360;2022-07-29T03:43:12;95539.25;;;20.74;73.94
36192;BME280;22233;42.708;23.360;2022-07-29T03:45:43;95522.44;;;20.26;75.33
36192;BME280;22233;42.708;23.360;2022-07-29T03:48:13;95534.25;;;20.57;74.34
36192;BME280;22233;42.708;23.360;2022-07-29T03:50:39;95530.50;;;20.69;73.75
36192;BME280;22233;42.708;23.360;2022-07-29T03:53:05;95532.16;;;20.47;74.68
36192;BME280;22233;42.708;23.360;2022-07-29T03:55:35;95548.28;;;20.71;74.23
36192;BME280;22233;42.708;23.360;2022-07-29T03:58:03;95535.56;;;20.97;72.81
36192;BME280;22233;42.708;23.360;2022-07-29T04:00:29;95550.81;;;20.57;74.45
36192;BME280;22233;42.708;23.360;2022-07-29T04:02:56;95540.41;;;20.73;73.90
36192;BME280;22233;42.708;23.360;2022-07-29T04:05:21;95539.34;;;20.55;74.34
36192;BME280;22233;42.708;23.360;2022-07-29T04:07:47;95551.75;;;20.65;74.27
36192;BME280;22233;42.708;23.360;2022-07-29T04:10:13;95557.97;;;20.92;73.01
36192;BME280;22233;42.708;23.360;2022-07-29T04:12:40;95557.28;;;20.68;73.67
36192;BME280;22233;42.708;23.360;2022-07-29T04:15:06;95553.19;;;21.23;71.83
36192;BME280;22233;42.708;23.360;2022-07-29T04:17:32;95541.72;;;21.21;71.94
36192;BME280;22233;42.708;23.360;2022-07-29T04:19:57;95544.06;;;21.15;72.09
36192;BME280;22233;42.708;23.360;2022-07-29T04:22:23;95532.03;;;21.38;70.76
36192;BME280;22233;42.708;23.360;2022-07-29T04:24:48;95536.41;;;21.42;71.26
36192;BME280;22233;42.708;23.360;2022-07-29T04:27:13;95535.19;;;21.36;71.32
36192;BME280;22233;42.708;23.360;2022-07-29T04:29:39;95533.34;;;21.51;70.40
36192;BME280;22233;42.708;23.360;2022-07-29T04:32:05;95544.81;;;21.53;70.36
36192;BME280;22233;42.708;23.360;2022-07-29T04:34:30;95548.00;;;21.51;70.40
36192;BME280;22233;42.708;23.360;2022-07-29T04:36:56;95539.78;;;21.62;70.01
36192;BME280;22233;42.708;23.360;2022-07-29T04:39:21;95544.88;;;21.57;70.02
36192;BME280;22233;42.708;23.360;2022-07-29T04:41:46;95555.38;;;21.85;69.05
36192;BME280;22233;42.708;23.360;2022-07-29T04:44:12;95564.91;;;21.87;68.66
36192;BME280;22233;42.708;23.360;2022-07-29T04:46:38;95570.44;;;21.87;68.75
36192;BME280;22233;42.708;23.360;2022-07-29T04:49:03;95566.63;;;22.06;68.26
36192;BME280;22233;42.708;23.360;2022-07-29T04:51:29;95570.63;;;22.12;67.48
36192;BME280;22233;42.708;23.360;2022-07-29T04:53:54;95565.56;;;21.73;69.29
36192;BME280;22233;42.708;23.360;2022-07-29T04:56:20;95559.34;;;21.84;68.79
36192;BME280;22233;42.708;23.360;2022-07-29T04:58:45;95563.78;;;21.96;67.94
36192;BME280;22233;42.708;23.360;2022-07-29T05:01:11;95563.22;;;22.24;67.10
36192;BME280;22233;42.708;23.360;2022-07-29T05:03:36;95546.09;;;22.11;66.40
36192;BME280;22233;42.708;23.360;2022-07-29T05:06:02;95559.00;;;22.44;66.03
36192;BME280;22233;42.708;23.360;2022-07-29T05:08:27;95563.06;;;22.65;66.45
36192;BME280;22233;42.708;23.360;2022-07-29T05:10:53;95563.91;;;22.80;65.63
36192;BME280;22233;42.708;23.360;2022-07-29T05:13:18;95558.38;;;22.72;65.85
36192;BME280;22233;42.708;23.360;2022-07-29T05:15:43;95568.66;;;22.72;65.70
36192;BME280;22233;42.708;23.360;2022-07-29T05:18:09;95576.63;;;22.84;65.67
36192;BME280;22233;42.708;23.360;2022-07-29T05:20:35;95571.50;;;22.86;65.98
36192;BME280;22233;42.708;23.360;2022-07-29T05:23:01;95556.75;;;22.64;66.00
36192;BME280;22233;42.708;23.360;2022-07-29T05:25:28;95583.78;;;22.92;65.55
36192;BME280;22233;42.708;23.360;2022-07-29T05:27:54;95565.16;;;22.86;65.72
36192;BME280;22233;42.708;23.360;2022-07-29T05:30:20;95581.38;;;22.87;65.18
36192;BME280;22233;42.708;23.360;2022-07-29T05:32:46;95572.72;;;23.00;65.30
36192;BME280;22233;42.708;23.360;2022-07-29T05:35:13;95559.84;;;22.52;66.22
36192;BME280;22233;42.708;23.360;2022-07-29T05:37:38;95563.03;;;22.61;66.72
36192;BME280;22233;42.708;23.360;2022-07-29T05:40:04;95570.28;;;22.80;66.46
36192;BME280;22233;42.708;23.360;2022-07-29T05:42:30;95571.09;;;22.84;66.52
36192;BME280;22233;42.708;23.360;2022-07-29T05:44:55;95575.03;;;22.83;65.77
36192;BME280;22233;42.708;23.360;2022-07-29T05:47:22;95560.09;;;23.06;64.70
36192;BME280;22233;42.708;23.360;2022-07-29T05:49:47;95572.75;;;23.03;63.97
36192;BME280;22233;42.708;23.360;2022-07-29T05:52:14;95587.06;;;23.16;63.76
36192;BME280;22233;42.708;23.360;2022-07-29T05:54:40;95572.81;;;23.10;63.95
36192;BME280;22233;42.708;23.360;2022-07-29T05:57:05;95577.47;;;22.99;63.22
36192;BME280;22233;42.708;23.360;2022-07-29T05:59:35;95569.69;;;23.33;62.56
36192;BME280;22233;42.708;23.360;2022-07-29T06:02:00;95572.13;;;23.64;60.79
36192;BME280;22233;42.708;23.360;2022-07-29T06:04:26;95580.41;;;23.39;61.49
36192;BME280;22233;42.708;23.360;2022-07-29T06:06:51;95569.75;;;23.59;60.69
36192;BME280;22233;42.708;23.360;2022-07-29T06:09:17;95591.63;;;23.92;60.01
36192;BME280;22233;42.708;23.360;2022-07-29T06:11:43;95587.25;;;24.09;59.69
36192;BME280;22233;42.708;23.360;2022-07-29T06:14:08;95583.69;;;24.09;59.47
36192;BME280;22233;42.708;23.360;2022-07-29T06:16:34;95587.66;;;24.19;59.82
36192;BME280;22233;42.708;23.360;2022-07-29T06:18:59;95586.44;;;24.12;59.11
36192;BME280;22233;42.708;23.360;2022-07-29T06:21:24;95586.84;;;24.04;59.81
36192;BME280;22233;42.708;23.360;2022-07-29T06:23:50;95570.63;;;24.13;59.36
36192;BME280;22233;42.708;23.360;2022-07-29T06:26:15;95578.94;;;23.91;60.01
36192;BME280;22233;42.708;23.360;2022-07-29T06:28:41;95574.56;;;24.08;59.57
36192;BME280;22233;42.708;23.360;2022-07-29T06:31:06;95586.06;;;24.07;60.22
36192;BME280;22233;42.708;23.360;2022-07-29T06:33:32;95588.84;;;24.54;59.32
36192;BME280;22233;42.708;23.360;2022-07-29T06:35:58;95589.19;;;24.48;58.92
36192;BME280;22233;42.708;23.360;2022-07-29T06:38:24;95576.53;;;24.62;58.84
36192;BME280;22233;42.708;23.360;2022-07-29T06:40:50;95585.25;;;24.46;58.33
36192;BME280;22233;42.708;23.360;2022-07-29T06:43:38;95563.41;;;24.73;58.20
36192;BME280;22233;42.708;23.360;2022-07-29T06:46:06;95562.19;;;24.70;57.08
36192;BME280;22233;42.708;23.360;2022-07-29T06:48:33;95559.41;;;24.74;57.22
36192;BME280;22233;42.708;23.360;2022-07-29T06:50:59;95578.41;;;24.97;55.89
36192;BME280;22233;42.708;23.360;2022-07-29T06:53:25;95579.91;;;25.12;55.46
36192;BME280;22233;42.708;23.360;2022-07-29T06:55:51;95567.69;;;24.99;54.99
36192;BME280;22233;42.708;23.360;2022-07-29T06:58:17;95561.69;;;25.01;55.46
36192;BME280;22233;42.708;23.360;2022-07-29T07:00:48;95565.19;;;25.30;54.05
36192;BME280;22233;42.708;23.360;2022-07-29T07:03:15;95572.28;;;25.42;53.68
36192;BME280;22233;42.708;23.360;2022-07-29T07:05:40;95577.78;;;25.45;52.25
36192;BME280;22233;42.708;23.360;2022-07-29T07:08:06;95559.78;;;25.68;52.08
36192;BME280;22233;42.708;23.360;2022-07-29T07:10:32;95557.25;;;25.91;50.90
36192;BME280;22233;42.708;23.360;2022-07-29T07:12:59;95562.72;;;26.06;50.62
36192;BME280;22233;42.708;23.360;2022-07-29T07:15:24;95558.47;;;25.83;50.97
36192;BME280;22233;42.708;23.360;2022-07-29T07:17:49;95565.91;;;26.04;51.56
36192;BME280;22233;42.708;23.360;2022-07-29T07:20:16;95566.78;;;25.94;51.65
36192;BME280;22233;42.708;23.360;2022-07-29T07:22:41;95552.41;;;25.99;51.49
36192;BME280;22233;42.708;23.360;2022-07-29T07:25:07;95566.53;;;26.23;50.95
36192;BME280;22233;42.708;23.360;2022-07-29T07:27:32;95559.47;;;26.15;51.04
36192;BME280;22233;42.708;23.360;2022-07-29T07:29:58;95556.81;;;25.97;51.85
36192;BME280;22233;42.708;23.360;2022-07-29T07:32:23;95553.06;;;26.18;51.44
36192;BME280;22233;42.708;23.360;2022-07-29T07:34:49;95559.72;;;26.27;51.23
36192;BME280;22233;42.708;23.360;2022-07-29T07:37:14;95551.53;;;26.58;50.55
36192;BME280;22233;42.708;23.360;2022-07-29T07:39:40;95552.69;;;26.57;51.21
36192;BME280;22233;42.708;23.360;2022-07-29T07:42:06;95554.53;;;26.75;50.25
36192;BME280;22233;42.708;23.360;2022-07-29T07:44:31;95555.53;;;26.50;50.99
36192;BME280;22233;42.708;23.360;2022-07-29T07:46:57;95546.03;;;26.44;51.22
36192;BME280;22233;42.708;23.360;2022-07-29T07:49:22;95557.25;;;26.78;50.08
36192;BME280;22233;42.708;23.360;2022-07-29T07:51:48;95555.84;;;26.63;50.83
36192;BME280;22233;42.708;23.360;2022-07-29T07:54:14;95545.63;;;26.87;49.70
36192;BME280;22233;42.708;23.360;2022-07-29T07:56:39;95552.88;;;27.12;49.14
36192;BME280;22233;42.708;23.360;2022-07-29T07:59:05;95549.56;;;27.24;49.15
36192;BME280;22233;42.708;23.360;2022-07-29T08:01:30;95558.88;;;27.10;49.00
36192;BME280;22233;42.708;23.360;2022-07-29T08:03:55;95547.81;;;27.37;48.45
36192;BME280;22233;42.708;23.360;2022-07-29T08:06:21;95535.38;;;27.42;48.01
36192;BME280;22233;42.708;23.360;2022-07-29T08:08:46;95537.09;;;27.32;47.98
36192;BME280;22233;42.708;23.360;2022-07-29T08:11:12;95543.22;;;27.50;48.05
36192;BME280;22233;42.708;23.360;2022-07-29T08:13:39;95548.28;;;27.59;46.88
36192;BME280;22233;42.708;23.360;2022-07-29T08:16:05;95546.66;;;27.62;46.54
36192;BME280;22233;42.708;23.360;2022-07-29T08:18:39;95540.28;;;27.61;46.52
36192;BME280;22233;42.708;23.360;2022-07-29T08:21:05;95544.69;;;27.86;46.31
36192;BME280;22233;42.708;23.360;2022-07-29T08:23:30;95550.06;;;28.00;45.88
36192;BME280;22233;42.708;23.360;2022-07-29T08:26:10;95536.19;;;28.20;44.84
36192;BME280;22233;42.708;23.360;2022-07-29T08:28:40;95551.34;;;27.96;45.83
36192;BME280;22233;42.708;23.360;2022-07-29T08:31:06;95538.75;;;28.11;44.91
36192;BME280;22233;42.708;23.360;2022-07-29T08:33:32;95542.97;;;28.43;44.57
36192;BME280;22233;42.708;23.360;2022-07-29T08:35:58;95547.72;;;28.46;44.79
36192;BME280;22233;42.708;23.360;2022-07-29T08:38:23;95525.69;;;28.52;43.60
36192;BME280;22233;42.708;23.360;2022-07-29T08:40:51;95554.00;;;28.54;44.46
36192;BME280;22233;42.708;23.360;2022-07-29T08:43:18;95545.84;;;28.83;43.79
36192;BME280;22233;42.708;23.360;2022-07-29T08:48:12;95523.19;;;28.77;43.55
36192;BME280;22233;42.708;23.360;2022-07-29T08:50:38;95541.38;;;29.05;43.32
36192;BME280;22233;42.708;23.360;2022-07-29T08:53:06;95525.72;;;29.12;43.22
36192;BME280;22233;42.708;23.360;2022-07-29T08:55:32;95528.25;;;29.42;42.49
36192;BME280;22233;42.708;23.360;2022-07-29T08:57:59;95534.22;;;29.44;43.02
36192;BME280;22233;42.708;23.360;2022-07-29T09:00:25;95537.41;;;29.63;42.38
36192;BME280;22233;42.708;23.360;2022-07-29T09:02:56;95535.28;;;29.51;42.10
36192;BME280;22233;42.708;23.360;2022-07-29T09:05:23;95530.88;;;29.50;42.14
36192;BME280;22233;42.708;23.360;2022-07-29T09:07:50;95534.75;;;29.56;41.48
36192;BME280;22233;42.708;23.360;2022-07-29T09:10:15;95529.41;;;29.81;41.02
36192;BME280;22233;42.708;23.360;2022-07-29T09:12:41;95515.13;;;29.76;41.17
36192;BME280;22233;42.708;23.360;2022-07-29T09:15:07;95524.66;;;30.27;39.94
36192;BME280;22233;42.708;23.360;2022-07-29T09:17:44;95517.66;;;30.36;38.88
36192;BME280;22233;42.708;23.360;2022-07-29T09:20:12;95506.13;;;30.17;39.17
36192;BME280;22233;42.708;23.360;2022-07-29T09:22:38;95510.75;;;30.07;39.06
36192;BME280;22233;42.708;23.360;2022-07-29T09:25:03;95516.81;;;30.22;38.95
36192;BME280;22233;42.708;23.360;2022-07-29T09:27:29;95520.66;;;30.45;38.14
36192;BME280;22233;42.708;23.360;2022-07-29T09:30:05;95519.66;;;30.52;37.99
36192;BME280;22233;42.708;23.360;2022-07-29T09:32:33;95517.84;;;30.74;37.70
36192;BME280;22233;42.708;23.360;2022-07-29T09:35:23;95513.16;;;30.84;35.17
36192;BME280;22233;42.708;23.360;2022-07-29T09:37:49;95502.81;;;30.97;36.65
36192;BME280;22233;42.708;23.360;2022-07-29T09:40:24;95517.41;;;31.05;36.84
36192;BME280;22233;42.708;23.360;2022-07-29T09:42:51;95513.50;;;31.15;37.37
36192;BME280;22233;42.708;23.360;2022-07-29T09:45:45;95514.53;;;31.34;36.87
36192;BME280;22233;42.708;23.360;2022-07-29T09:48:14;95513.94;;;31.14;37.83
36192;BME280;22233;42.708;23.360;2022-07-29T09:50:41;95499.63;;;31.37;36.53
36192;BME280;22233;42.708;23.360;2022-07-29T09:53:08;95509.53;;;31.55;36.54
36192;BME280;22233;42.708;23.360;2022-07-29T09:55:48;95509.88;;;31.57;36.12
36192;BME280;22233;42.708;23.360;2022-07-29T09:58:18;95492.34;;;31.53;36.34
36192;BME280;22233;42.708;23.360;2022-07-29T10:00:45;95496.03;;;31.75;34.65
36192;BME280;22233;42.708;23.360;2022-07-29T10:03:11;95510.09;;;31.75;35.39
36192;BME280;22233;42.708;23.360;2022-07-29T10:05:37;95488.88;;;31.61;34.76
36192;BME280;22233;42.708;23.360;2022-07-29T10:08:02;95486.63;;;31.69;35.24
36192;BME280;22233;42.708;23.360;2022-07-29T10:10:31;95471.09;;;31.77;35.03
36192;BME280;22233;42.708;23.360;2022-07-29T10:12:58;95479.09;;;31.92;34.86
36192;BME280;22233;42.708;23.360;2022-07-29T10:15:27;95477.50;;;32.03;34.91
36192;BME280;22233;42.708;23.360;2022-07-29T10:17:54;95467.25;;;31.97;34.97
36192;BME280;22233;42.708;23.360;2022-07-29T10:20:22;95478.28;;;31.91;35.22
36192;BME280;22233;42.708;23.360;2022-07-29T10:22:49;95472.69;;;31.78;35.47
36192;BME280;22233;42.708;23.360;2022-07-29T10:25:15;95467.41;;;31.80;34.60
36192;BME280;22233;42.708;23.360;2022-07-29T10:27:42;95457.63;;;31.85;34.46
36192;BME280;22233;42.708;23.360;2022-07-29T10:30:08;95439.09;;;31.75;34.05
36192;BME280;22233;42.708;23.360;2022-07-29T10:32:39;95456.75;;;32.36;33.66
36192;BME280;22233;42.708;23.360;2022-07-29T10:40:42;95458.19;;;32.40;33.49
36192;BME280;22233;42.708;23.360;2022-07-29T10:43:31;95445.56;;;32.58;33.18
36192;BME280;22233;42.708;23.360;2022-07-29T10:46:01;95457.97;;;32.70;32.45
36192;BME280;22233;42.708;23.360;2022-07-29T10:48:27;95454.03;;;32.89;32.45
36192;BME280;22233;42.708;23.360;2022-07-29T10:51:02;95450.13;;;33.09;31.90
36192;BME280;22233;42.708;23.360;2022-07-29T10:53:49;95446.69;;;33.14;31.37
36192;BME280;22233;42.708;23.360;2022-07-29T10:56:32;95441.34;;;33.07;32.93
36192;BME280;22233;42.708;23.360;2022-07-29T11:01:47;95417.41;;;32.80;33.11
36192;BME280;22233;42.708;23.360;2022-07-29T11:04:15;95417.00;;;33.13;31.79
36192;BME280;22233;42.708;23.360;2022-07-29T11:07:06;95427.78;;;33.46;31.65
36192;BME280;22233;42.708;23.360;2022-07-29T11:09:33;95439.00;;;33.36;32.45
36192;BME280;22233;42.708;23.360;2022-07-29T11:11:59;95428.66;;;33.65;32.01
36192;BME280;22233;42.708;23.360;2022-07-29T11:14:59;95429.91;;;33.63;32.38
36192;BME280;22233;42.708;23.360;2022-07-29T11:17:26;95400.50;;;33.65;32.30
36192;BME280;22233;42.708;23.360;2022-07-29T11:22:56;95406.31;;;33.79;31.44
36192;BME280;22233;42.708;23.360;2022-07-29T11:25:22;95392.19;;;33.70;32.44
36192;BME280;22233;42.708;23.360;2022-07-29T11:27:48;95407.91;;;34.08;32.30
36192;BME280;22233;42.708;23.360;2022-07-29T11:30:14;95412.00;;;34.07;32.08
36192;BME280;22233;42.708;23.360;2022-07-29T11:32:42;95391.97;;;34.14;31.38
36192;BME280;22233;42.708;23.360;2022-07-29T11:35:35;95405.16;;;34.45;31.58
36192;BME280;22233;42.708;23.360;2022-07-29T11:44:02;95396.28;;;35.08;30.81
36192;BME280;22233;42.708;23.360;2022-07-29T11:49:12;95401.72;;;35.11;30.49
36192;BME280;22233;42.708;23.360;2022-07-29T11:51:39;95396.31;;;34.89;30.48
36192;BME280;22233;42.708;23.360;2022-07-29T11:54:05;95382.34;;;34.95;30.41
36192;BME280;22233;42.708;23.360;2022-07-29T11:56:34;95381.34;;;35.26;29.94
36192;BME280;22233;42.708;23.360;2022-07-29T11:59:05;95393.41;;;35.26;29.98
36192;BME280;22233;42.708;23.360;2022-07-29T12:01:31;95384.19;;;35.16;30.08
36192;BME280;22233;42.708;23.360;2022-07-29T12:04:04;95394.88;;;35.03;29.57
36192;BME280;22233;42.708;23.360;2022-07-29T12:06:30;95392.03;;;35.03;30.10
36192;BME280;22233;42.708;23.360;2022-07-29T12:08:56;95384.63;;;35.15;29.53
36192;BME280;22233;42.708;23.360;2022-07-29T12:11:21;95370.25;;;35.46;29.09
36192;BME280;22233;42.708;23.360;2022-07-29T12:13:48;95387.81;;;35.08;29.25
36192;BME280;22233;42.708;23.360;2022-07-29T12:16:13;95362.59;;;35.37;29.55
36192;BME280;22233;42.708;23.360;2022-07-29T12:18:39;95378.41;;;35.77;29.29
36192;BME280;22233;42.708;23.360;2022-07-29T12:21:04;95380.41;;;35.53;29.44
36192;BME280;22233;42.708;23.360;2022-07-29T12:23:31;95385.34;;;35.76;28.74
36192;BME280;22233;42.708;23.360;2022-07-29T12:25:57;95371.56;;;35.93;28.58
36192;BME280;22233;42.708;23.360;2022-07-29T12:28:23;95372.25;;;35.88;29.25
36192;BME280;22233;42.708;23.360;2022-07-29T12:30:49;95377.81;;;36.22;28.63
36192;BME280;22233;42.708;23.360;2022-07-29T12:35:51;95361.50;;;36.55;28.16
36192;BME280;22233;42.708;23.360;2022-07-29T12:38:18;95373.75;;;36.37;28.52
36192;BME280;22233;42.708;23.360;2022-07-29T12:40:45;95358.16;;;36.42;27.70
36192;BME280;22233;42.708;23.360;2022-07-29T12:45:41;95358.31;;;36.24;27.53
36192;BME280;22233;42.708;23.360;2022-07-29T12:48:07;95358.09;;;36.51;27.62
36192;BME280;22233;42.708;23.360;2022-07-29T12:50:51;95369.81;;;36.59;27.85
36192;BME280;22233;42.708;23.360;2022-07-29T12:53:16;95349.88;;;36.53;27.65
36192;BME280;22233;42.708;23.360;2022-07-29T12:55:47;95352.75;;;36.68;27.14
36192;BME280;22233;42.708;23.360;2022-07-29T13:03:25;95346.66;;;36.46;27.46
36192;BME280;22233;42.708;23.360;2022-07-29T13:05:50;95323.47;;;36.56;27.33
36192;BME280;22233;42.708;23.360;2022-07-29T13:08:17;95343.47;;;36.53;27.29
36192;BME280;22233;42.708;23.360;2022-07-29T13:10:46;95348.94;;;36.86;27.08
36192;BME280;22233;42.708;23.360;2022-07-29T13:13:13;95330.88;;;36.98;27.08
36192;BME280;22233;42.708;23.360;2022-07-29T13:15:44;95325.59;;;37.06;27.04
36192;BME280;22233;42.708;23.360;2022-07-29T13:18:29;95332.16;;;37.12;26.81
36192;BME280;22233;42.708;23.360;2022-07-29T13:20:55;95322.88;;;37.12;27.61
36192;BME280;22233;42.708;23.360;2022-07-29T13:23:21;95318.91;;;36.89;26.63
36192;BME280;22233;42.708;23.360;2022-07-29T13:25:47;95329.91;;;37.02;27.17
36192;BME280;22233;42.708;23.360;2022-07-29T13:28:12;95316.88;;;37.25;26.81
36192;BME280;22233;42.708;23.360;2022-07-29T13:30:39;95319.06;;;37.00;27.44
36192;BME280;22233;42.708;23.360;2022-07-29T13:33:05;95322.09;;;37.47;26.16
36192;BME280;22233;42.708;23.360;2022-07-29T13:35:30;95321.41;;;37.52;26.00
36192;BME280;22233;42.708;23.360;2022-07-29T13:37:55;95298.69;;;37.67;25.85
36192;BME280;22233;42.708;23.360;2022-07-29T13:40:21;95305.56;;;37.60;25.88
36192;BME280;22233;42.708;23.360;2022-07-29T13:42:47;95301.31;;;37.70;25.62